首页
METAR-TAF:

METAR-TAF

机场 :

阿伯茲福德國際機場

亞博斯福, 不列颠哥伦比亚, 加拿大

纬度: 49-02N, 经度: 122-22W, 海拔: 54米

当前天气观测

该预报发布于46分钟前的21:00 UTC
风速6节,风向西转西南
温度 21°C
湿度 53%
气压 1012 hPa
能見度: 48.3公里
少量云层高于2600英尺
散云层高于6500英尺
多云层高于12000英尺
多云层高于16000英尺

METAR: CYXX 222100Z 24006KT 30SM FEW026 SCT065 BKN120 BKN160 21/11 A2989 RMK CU1SC2AC3AC1 SH DIST E SLP123 DENSITY ALT 1000FT

时间: 14:46 (21:46 UTC)

预报

该预报发布于4小时和6分钟前的17:40 UTC
预报有效从22日的 18点(UTC)到 23日的 18点(UTC)
风速10节,风向西南
能見度: 10公里
少量云层高于8000英尺
多云层高于12000英尺
短暂存在
从 22日的 18点(UTC)到 23日的 03点(UTC)
散云层高于12000英尺
从 23日的 0300点(UTC)
风速8节,风向南转西南
能見度: 10公里
散云层高于1500英尺
多云层高于5000英尺
短暂存在
从 23日的 03点(UTC)到 23日的 08点(UTC)
能見度: 10公里
小阵雨
从 23日的 0800点(UTC)
风速8节,风向南转西南
能見度: 10公里
散云层高于1200英尺
多云层高于3000英尺
短暂存在
从 23日的 08点(UTC)到 23日的 18点(UTC)
能見度: 10公里
多云层高于1200英尺
小阵雨

TAF: CYXX 221740Z 2218/2318 22010KT P6SM FEW080 BKN120 TEMPO 2218/2303 SCT120 FM230300 20008KT P6SM SCT015 BKN050 TEMPO 2303/2308 P6SM -SHRA FM230800 20008KT P6SM SCT012 BKN030 TEMPO 2308/2318 P6SM -SHRA BKN012 RMK NXT FCST BY 230000Z

超过4000个机场的气象观测和天气预报(METAR&TAF报告)。

可查询的气象台以黄色和红色小点在地图上表示。

将鼠标移到小点上方,可查看气象台名称。

然后点击查看天气观测和预报。

如需切换地图:点击带黑十字的绿色按钮放大地图;点击带横线的绿色按钮缩小地图;或者点击绿色箭头查看邻近地区的地图。


METAR-TAF: